sensor_id;sensor_type;location;lat;lon;timestamp;temperature;humidity
44271;DHT22;29963;44.594;11.368;2023-07-09T00:02:17;27.10;99.90
44271;DHT22;29963;44.594;11.368;2023-07-09T00:04:43;27.10;99.90
44271;DHT22;29963;44.594;11.368;2023-07-09T00:07:27;27.00;99.90
44271;DHT22;29963;44.594;11.368;2023-07-09T00:09:54;26.90;99.90
44271;DHT22;29963;44.594;11.368;2023-07-09T00:12:20;26.80;99.90
44271;DHT22;29963;44.594;11.368;2023-07-09T00:14:47;26.80;99.90
44271;DHT22;29963;44.594;11.368;2023-07-09T00:17:32;26.80;99.90
44271;DHT22;29963;44.594;11.368;2023-07-09T00:19:59;26.80;99.90
44271;DHT22;29963;44.594;11.368;2023-07-09T00:22:25;26.80;99.90
44271;DHT22;29963;44.594;11.368;2023-07-09T00:24:52;26.80;99.90
44271;DHT22;29963;44.594;11.368;2023-07-09T00:27:24;26.70;99.90
44271;DHT22;29963;44.594;11.368;2023-07-09T00:29:51;26.70;99.90
44271;DHT22;29963;44.594;11.368;2023-07-09T00:32:19;26.70;99.90
44271;DHT22;29963;44.594;11.368;2023-07-09T00:34:51;26.70;99.90
44271;DHT22;29963;44.594;11.368;2023-07-09T00:37:20;26.70;99.90
44271;DHT22;29963;44.594;11.368;2023-07-09T00:39:47;26.70;99.90
44271;DHT22;29963;44.594;11.368;2023-07-09T00:42:15;26.60;99.90
44271;DHT22;29963;44.594;11.368;2023-07-09T00:44:47;26.70;99.90
44271;DHT22;29963;44.594;11.368;2023-07-09T00:47:21;26.70;99.90
44271;DHT22;29963;44.594;11.368;2023-07-09T00:49:47;26.60;99.90
44271;DHT22;29963;44.594;11.368;2023-07-09T00:54:48;26.50;99.90
44271;DHT22;29963;44.594;11.368;2023-07-09T00:57:17;26.50;99.90
44271;DHT22;29963;44.594;11.368;2023-07-09T00:59:49;26.50;99.90
44271;DHT22;29963;44.594;11.368;2023-07-09T01:02:16;26.50;99.90
44271;DHT22;29963;44.594;11.368;2023-07-09T01:04:43;26.40;99.90
44271;DHT22;29963;44.594;11.368;2023-07-09T01:07:09;26.40;99.90
44271;DHT22;29963;44.594;11.368;2023-07-09T01:09:34;26.30;99.90
44271;DHT22;29963;44.594;11.368;2023-07-09T01:12:08;26.30;99.90
44271;DHT22;29963;44.594;11.368;2023-07-09T01:14:34;26.30;99.90
44271;DHT22;29963;44.594;11.368;2023-07-09T01:17:03;26.30;99.90
44271;DHT22;29963;44.594;11.368;2023-07-09T01:19:36;26.40;99.90
44271;DHT22;29963;44.594;11.368;2023-07-09T01:22:09;26.40;99.90
44271;DHT22;29963;44.594;11.368;2023-07-09T01:24:59;26.30;99.90
44271;DHT22;29963;44.594;11.368;2023-07-09T01:27:33;26.20;99.90
44271;DHT22;29963;44.594;11.368;2023-07-09T01:30:05;26.10;99.90
44271;DHT22;29963;44.594;11.368;2023-07-09T01:32:31;26.00;99.90
44271;DHT22;29963;44.594;11.368;2023-07-09T01:35:00;25.90;99.90
44271;DHT22;29963;44.594;11.368;2023-07-09T01:37:31;25.80;99.90
44271;DHT22;29963;44.594;11.368;2023-07-09T01:39:56;25.80;99.90
44271;DHT22;29963;44.594;11.368;2023-07-09T01:42:24;25.80;99.90
44271;DHT22;29963;44.594;11.368;2023-07-09T01:44:51;25.80;99.90
44271;DHT22;29963;44.594;11.368;2023-07-09T01:47:19;25.70;99.90
44271;DHT22;29963;44.594;11.368;2023-07-09T01:49:44;25.80;99.90
44271;DHT22;29963;44.594;11.368;2023-07-09T01:52:14;25.70;99.90
44271;DHT22;29963;44.594;11.368;2023-07-09T01:54:42;25.60;99.90
44271;DHT22;29963;44.594;11.368;2023-07-09T01:57:21;25.50;99.90
44271;DHT22;29963;44.594;11.368;2023-07-09T01:59:51;25.40;99.90
44271;DHT22;29963;44.594;11.368;2023-07-09T02:02:18;25.30;99.90
44271;DHT22;29963;44.594;11.368;2023-07-09T02:04:49;25.30;99.90
44271;DHT22;29963;44.594;11.368;2023-07-09T02:07:15;25.30;99.90
44271;DHT22;29963;44.594;11.368;2023-07-09T02:09:41;25.40;99.90
44271;DHT22;29963;44.594;11.368;2023-07-09T02:12:08;25.30;99.90
44271;DHT22;29963;44.594;11.368;2023-07-09T02:14:33;25.30;99.90
44271;DHT22;29963;44.594;11.368;2023-07-09T02:16:59;25.20;99.90
44271;DHT22;29963;44.594;11.368;2023-07-09T02:19:26;25.10;99.90
44271;DHT22;29963;44.594;11.368;2023-07-09T02:21:51;25.00;99.90
44271;DHT22;29963;44.594;11.368;2023-07-09T02:24:17;25.00;99.90
44271;DHT22;29963;44.594;11.368;2023-07-09T02:26:42;25.00;99.90
44271;DHT22;29963;44.594;11.368;2023-07-09T02:29:08;25.00;99.90
44271;DHT22;29963;44.594;11.368;2023-07-09T02:31:33;25.00;99.90
44271;DHT22;29963;44.594;11.368;2023-07-09T02:33:59;25.00;99.90
44271;DHT22;29963;44.594;11.368;2023-07-09T02:36:25;24.90;99.90
44271;DHT22;29963;44.594;11.368;2023-07-09T02:38:51;24.80;99.90
44271;DHT22;29963;44.594;11.368;2023-07-09T02:41:16;24.80;99.90
44271;DHT22;29963;44.594;11.368;2023-07-09T02:43:42;24.70;99.90
44271;DHT22;29963;44.594;11.368;2023-07-09T02:46:07;24.60;99.90
44271;DHT22;29963;44.594;11.368;2023-07-09T02:48:33;24.60;99.90
44271;DHT22;29963;44.594;11.368;2023-07-09T02:50:59;24.60;99.90
44271;DHT22;29963;44.594;11.368;2023-07-09T02:53:24;24.60;99.90
44271;DHT22;29963;44.594;11.368;2023-07-09T02:55:50;24.60;99.90
44271;DHT22;29963;44.594;11.368;2023-07-09T02:58:15;24.60;99.90
44271;DHT22;29963;44.594;11.368;2023-07-09T03:00:41;24.70;99.90
44271;DHT22;29963;44.594;11.368;2023-07-09T03:03:07;24.80;99.90
44271;DHT22;29963;44.594;11.368;2023-07-09T03:05:33;24.80;99.90
44271;DHT22;29963;44.594;11.368;2023-07-09T03:07:59;24.80;99.90
44271;DHT22;29963;44.594;11.368;2023-07-09T03:10:24;24.80;99.90
44271;DHT22;29963;44.594;11.368;2023-07-09T03:12:50;24.70;99.90
44271;DHT22;29963;44.594;11.368;2023-07-09T03:15:15;24.70;99.90
44271;DHT22;29963;44.594;11.368;2023-07-09T03:17:41;24.70;99.90
44271;DHT22;29963;44.594;11.368;2023-07-09T03:20:07;24.70;99.90
44271;DHT22;29963;44.594;11.368;2023-07-09T03:22:33;24.70;99.90
44271;DHT22;29963;44.594;11.368;2023-07-09T03:24:59;24.70;99.90
44271;DHT22;29963;44.594;11.368;2023-07-09T03:27:24;24.80;99.90
44271;DHT22;29963;44.594;11.368;2023-07-09T03:29:50;24.80;99.90
44271;DHT22;29963;44.594;11.368;2023-07-09T03:32:15;24.80;99.90
44271;DHT22;29963;44.594;11.368;2023-07-09T03:34:41;24.70;99.90
44271;DHT22;29963;44.594;11.368;2023-07-09T03:37:06;24.70;99.90
44271;DHT22;29963;44.594;11.368;2023-07-09T03:39:32;24.60;99.90
44271;DHT22;29963;44.594;11.368;2023-07-09T03:41:58;24.50;99.90
44271;DHT22;29963;44.594;11.368;2023-07-09T03:44:23;24.50;99.90
44271;DHT22;29963;44.594;11.368;2023-07-09T03:46:49;24.50;99.90
44271;DHT22;29963;44.594;11.368;2023-07-09T03:49:14;24.50;99.90
44271;DHT22;29963;44.594;11.368;2023-07-09T03:51:40;24.50;99.90
44271;DHT22;29963;44.594;11.368;2023-07-09T03:54:05;24.50;99.90
44271;DHT22;29963;44.594;11.368;2023-07-09T03:56:32;24.40;99.90
44271;DHT22;29963;44.594;11.368;2023-07-09T03:58:58;24.40;99.90
44271;DHT22;29963;44.594;11.368;2023-07-09T04:01:23;24.40;99.90
44271;DHT22;29963;44.594;11.368;2023-07-09T04:03:49;24.40;99.90
44271;DHT22;29963;44.594;11.368;2023-07-09T04:06:14;24.40;99.90
44271;DHT22;29963;44.594;11.368;2023-07-09T04:08:40;24.40;99.90
44271;DHT22;29963;44.594;11.368;2023-07-09T04:11:06;24.40;99.90
44271;DHT22;29963;44.594;11.368;2023-07-09T04:13:31;24.40;99.90
44271;DHT22;29963;44.594;11.368;2023-07-09T04:15:58;24.30;99.90
44271;DHT22;29963;44.594;11.368;2023-07-09T04:18:23;24.30;99.90
44271;DHT22;29963;44.594;11.368;2023-07-09T04:20:50;24.30;99.90
44271;DHT22;29963;44.594;11.368;2023-07-09T04:23:17;24.30;99.90
44271;DHT22;29963;44.594;11.368;2023-07-09T04:25:42;24.30;99.90
44271;DHT22;29963;44.594;11.368;2023-07-09T04:28:08;24.30;99.90
44271;DHT22;29963;44.594;11.368;2023-07-09T04:30:34;24.30;99.90
44271;DHT22;29963;44.594;11.368;2023-07-09T04:33:00;24.20;99.90
44271;DHT22;29963;44.594;11.368;2023-07-09T04:35:25;24.30;99.90
44271;DHT22;29963;44.594;11.368;2023-07-09T04:37:51;24.30;99.90
44271;DHT22;29963;44.594;11.368;2023-07-09T04:40:18;24.30;99.90
44271;DHT22;29963;44.594;11.368;2023-07-09T04:42:44;24.30;99.90
44271;DHT22;29963;44.594;11.368;2023-07-09T04:45:11;24.30;99.90
44271;DHT22;29963;44.594;11.368;2023-07-09T04:47:38;24.40;99.90
44271;DHT22;29963;44.594;11.368;2023-07-09T04:50:05;24.40;99.90
44271;DHT22;29963;44.594;11.368;2023-07-09T04:52:31;24.50;99.90
44271;DHT22;29963;44.594;11.368;2023-07-09T04:54:57;24.60;99.90
44271;DHT22;29963;44.594;11.368;2023-07-09T04:57:22;24.60;99.90
44271;DHT22;29963;44.594;11.368;2023-07-09T04:59:48;24.60;99.90
44271;DHT22;29963;44.594;11.368;2023-07-09T05:02:14;24.60;99.90
44271;DHT22;29963;44.594;11.368;2023-07-09T05:04:40;24.60;99.90
44271;DHT22;29963;44.594;11.368;2023-07-09T05:07:06;24.60;99.90
44271;DHT22;29963;44.594;11.368;2023-07-09T05:09:32;24.60;99.90
44271;DHT22;29963;44.594;11.368;2023-07-09T05:11:59;24.60;99.90
44271;DHT22;29963;44.594;11.368;2023-07-09T05:14:26;24.60;99.90
44271;DHT22;29963;44.594;11.368;2023-07-09T05:16:52;24.70;99.90
44271;DHT22;29963;44.594;11.368;2023-07-09T05:19:18;24.80;99.90
44271;DHT22;29963;44.594;11.368;2023-07-09T05:21:44;24.80;99.90
44271;DHT22;29963;44.594;11.368;2023-07-09T05:24:10;24.90;99.90
44271;DHT22;29963;44.594;11.368;2023-07-09T05:26:35;24.90;99.90
44271;DHT22;29963;44.594;11.368;2023-07-09T05:29:03;24.90;99.90
44271;DHT22;29963;44.594;11.368;2023-07-09T05:31:29;25.00;99.90
44271;DHT22;29963;44.594;11.368;2023-07-09T05:33:55;25.00;99.90
44271;DHT22;29963;44.594;11.368;2023-07-09T05:36:20;25.00;99.90
44271;DHT22;29963;44.594;11.368;2023-07-09T05:38:46;25.00;99.90
44271;DHT22;29963;44.594;11.368;2023-07-09T05:41:13;25.00;99.90
44271;DHT22;29963;44.594;11.368;2023-07-09T05:43:42;25.00;99.90
44271;DHT22;29963;44.594;11.368;2023-07-09T05:46:08;25.10;99.90
44271;DHT22;29963;44.594;11.368;2023-07-09T05:48:34;25.10;99.90
44271;DHT22;29963;44.594;11.368;2023-07-09T05:51:00;25.20;99.90
44271;DHT22;29963;44.594;11.368;2023-07-09T05:53:25;25.10;99.90
44271;DHT22;29963;44.594;11.368;2023-07-09T05:55:55;25.10;99.90
44271;DHT22;29963;44.594;11.368;2023-07-09T05:58:21;25.10;99.90
44271;DHT22;29963;44.594;11.368;2023-07-09T06:00:50;25.10;99.90
44271;DHT22;29963;44.594;11.368;2023-07-09T06:03:19;25.10;99.90
44271;DHT22;29963;44.594;11.368;2023-07-09T06:05:44;25.20;99.90
44271;DHT22;29963;44.594;11.368;2023-07-09T06:08:10;25.20;99.90
44271;DHT22;29963;44.594;11.368;2023-07-09T06:10:38;25.20;99.90
44271;DHT22;29963;44.594;11.368;2023-07-09T06:13:05;25.30;99.90
44271;DHT22;29963;44.594;11.368;2023-07-09T06:15:31;25.30;99.90
44271;DHT22;29963;44.594;11.368;2023-07-09T06:17:57;25.40;99.90
44271;DHT22;29963;44.594;11.368;2023-07-09T06:20:22;25.30;99.90
44271;DHT22;29963;44.594;11.368;2023-07-09T06:22:48;25.40;99.90
44271;DHT22;29963;44.594;11.368;2023-07-09T06:25:14;25.40;99.90
44271;DHT22;29963;44.594;11.368;2023-07-09T06:27:39;25.50;99.90
44271;DHT22;29963;44.594;11.368;2023-07-09T06:30:05;25.50;99.90
44271;DHT22;29963;44.594;11.368;2023-07-09T06:32:31;25.60;99.90
44271;DHT22;29963;44.594;11.368;2023-07-09T06:34:57;25.60;99.90
44271;DHT22;29963;44.594;11.368;2023-07-09T06:37:22;25.60;99.90
44271;DHT22;29963;44.594;11.368;2023-07-09T06:39:48;25.60;99.90
44271;DHT22;29963;44.594;11.368;2023-07-09T06:42:13;25.70;99.90
44271;DHT22;29963;44.594;11.368;2023-07-09T06:44:39;25.60;99.90
44271;DHT22;29963;44.594;11.368;2023-07-09T06:47:05;25.70;99.90
44271;DHT22;29963;44.594;11.368;2023-07-09T06:49:30;25.70;99.90
44271;DHT22;29963;44.594;11.368;2023-07-09T06:51:56;25.80;99.90
44271;DHT22;29963;44.594;11.368;2023-07-09T06:54:21;25.90;99.90
44271;DHT22;29963;44.594;11.368;2023-07-09T06:56:47;25.90;99.90
44271;DHT22;29963;44.594;11.368;2023-07-09T06:59:12;25.90;99.90
44271;DHT22;29963;44.594;11.368;2023-07-09T07:01:38;25.90;99.90
44271;DHT22;29963;44.594;11.368;2023-07-09T07:04:04;25.90;99.90
44271;DHT22;29963;44.594;11.368;2023-07-09T07:06:29;25.90;99.90
44271;DHT22;29963;44.594;11.368;2023-07-09T07:08:56;26.00;99.90
44271;DHT22;29963;44.594;11.368;2023-07-09T07:11:21;26.10;99.90
44271;DHT22;29963;44.594;11.368;2023-07-09T07:13:47;26.10;99.90
44271;DHT22;29963;44.594;11.368;2023-07-09T07:16:17;26.20;99.90
44271;DHT22;29963;44.594;11.368;2023-07-09T07:18:42;26.30;99.90
44271;DHT22;29963;44.594;11.368;2023-07-09T07:21:08;26.30;99.90
44271;DHT22;29963;44.594;11.368;2023-07-09T07:23:34;26.40;99.90
44271;DHT22;29963;44.594;11.368;2023-07-09T07:25:59;26.50;99.90
44271;DHT22;29963;44.594;11.368;2023-07-09T07:28:25;26.50;99.90
44271;DHT22;29963;44.594;11.368;2023-07-09T07:31:01;26.60;99.90
44271;DHT22;29963;44.594;11.368;2023-07-09T07:33:26;26.60;99.90
44271;DHT22;29963;44.594;11.368;2023-07-09T07:36:11;26.70;99.90
44271;DHT22;29963;44.594;11.368;2023-07-09T07:38:37;26.80;99.90
44271;DHT22;29963;44.594;11.368;2023-07-09T07:41:02;26.80;99.90
44271;DHT22;29963;44.594;11.368;2023-07-09T07:43:28;26.90;99.90
44271;DHT22;29963;44.594;11.368;2023-07-09T07:45:53;26.90;99.90
44271;DHT22;29963;44.594;11.368;2023-07-09T07:48:19;26.90;99.90
44271;DHT22;29963;44.594;11.368;2023-07-09T07:50:45;27.00;99.90
44271;DHT22;29963;44.594;11.368;2023-07-09T07:53:14;27.10;99.90
44271;DHT22;29963;44.594;11.368;2023-07-09T07:55:40;27.10;99.90
44271;DHT22;29963;44.594;11.368;2023-07-09T07:58:11;27.10;99.90
44271;DHT22;29963;44.594;11.368;2023-07-09T08:00:38;27.20;99.90
44271;DHT22;29963;44.594;11.368;2023-07-09T08:03:04;27.20;99.90
44271;DHT22;29963;44.594;11.368;2023-07-09T08:05:29;27.30;99.90
44271;DHT22;29963;44.594;11.368;2023-07-09T08:07:55;27.30;99.90
44271;DHT22;29963;44.594;11.368;2023-07-09T08:10:21;27.40;99.90
44271;DHT22;29963;44.594;11.368;2023-07-09T08:12:47;27.40;99.90
44271;DHT22;29963;44.594;11.368;2023-07-09T08:15:13;27.50;99.90
44271;DHT22;29963;44.594;11.368;2023-07-09T08:17:38;27.50;99.90
44271;DHT22;29963;44.594;11.368;2023-07-09T08:20:04;27.60;99.90
44271;DHT22;29963;44.594;11.368;2023-07-09T08:22:30;27.60;99.90
44271;DHT22;29963;44.594;11.368;2023-07-09T08:24:56;27.60;99.90
44271;DHT22;29963;44.594;11.368;2023-07-09T08:27:21;27.70;99.90
44271;DHT22;29963;44.594;11.368;2023-07-09T08:29:47;27.70;99.90
44271;DHT22;29963;44.594;11.368;2023-07-09T08:32:13;27.80;99.90
44271;DHT22;29963;44.594;11.368;2023-07-09T08:34:40;27.80;99.90
44271;DHT22;29963;44.594;11.368;2023-07-09T08:37:07;27.90;99.90
44271;DHT22;29963;44.594;11.368;2023-07-09T08:39:33;27.90;99.90
44271;DHT22;29963;44.594;11.368;2023-07-09T08:42:07;27.90;99.90
44271;DHT22;29963;44.594;11.368;2023-07-09T08:50:32;28.10;99.90
44271;DHT22;29963;44.594;11.368;2023-07-09T08:53:01;28.10;99.90
44271;DHT22;29963;44.594;11.368;2023-07-09T08:55:28;28.10;99.90
44271;DHT22;29963;44.594;11.368;2023-07-09T08:58:04;28.20;99.90
44271;DHT22;29963;44.594;11.368;2023-07-09T09:00:48;28.20;99.90
44271;DHT22;29963;44.594;11.368;2023-07-09T09:06:16;28.30;99.90
44271;DHT22;29963;44.594;11.368;2023-07-09T09:14:31;28.40;99.90
44271;DHT22;29963;44.594;11.368;2023-07-09T09:16:58;28.50;99.90
44271;DHT22;29963;44.594;11.368;2023-07-09T09:19:36;28.60;99.90
44271;DHT22;29963;44.594;11.368;2023-07-09T09:22:09;28.60;99.90
44271;DHT22;29963;44.594;11.368;2023-07-09T09:27:28;28.70;99.90
44271;DHT22;29963;44.594;11.368;2023-07-09T09:29:54;28.70;99.90
44271;DHT22;29963;44.594;11.368;2023-07-09T09:32:28;28.70;99.90
44271;DHT22;29963;44.594;11.368;2023-07-09T09:34:54;28.80;99.90
44271;DHT22;29963;44.594;11.368;2023-07-09T09:39:51;28.80;99.90
44271;DHT22;29963;44.594;11.368;2023-07-09T09:42:17;28.90;99.90
44271;DHT22;29963;44.594;11.368;2023-07-09T09:44:44;29.00;99.90
44271;DHT22;29963;44.594;11.368;2023-07-09T09:47:13;29.00;99.90
44271;DHT22;29963;44.594;11.368;2023-07-09T09:49:43;29.10;99.90
44271;DHT22;29963;44.594;11.368;2023-07-09T09:52:14;29.10;99.90
44271;DHT22;29963;44.594;11.368;2023-07-09T09:54:46;29.10;99.90
44271;DHT22;29963;44.594;11.368;2023-07-09T09:57:21;29.10;99.90
44271;DHT22;29963;44.594;11.368;2023-07-09T09:59:47;29.10;99.90
44271;DHT22;29963;44.594;11.368;2023-07-09T10:02:18;29.10;99.90
44271;DHT22;29963;44.594;11.368;2023-07-09T10:04:45;29.20;99.90
44271;DHT22;29963;44.594;11.368;2023-07-09T10:07:18;29.20;99.90
44271;DHT22;29963;44.594;11.368;2023-07-09T10:09:54;29.20;99.90
44271;DHT22;29963;44.594;11.368;2023-07-09T10:17:53;29.40;99.90
44271;DHT22;29963;44.594;11.368;2023-07-09T10:20:38;29.50;99.90
44271;DHT22;29963;44.594;11.368;2023-07-09T10:26:15;29.60;99.90
44271;DHT22;29963;44.594;11.368;2023-07-09T10:31:41;29.60;99.60
44271;DHT22;29963;44.594;11.368;2023-07-09T10:37:39;29.70;99.70
44271;DHT22;29963;44.594;11.368;2023-07-09T10:40:12;29.70;99.90
44271;DHT22;29963;44.594;11.368;2023-07-09T10:42:45;29.80;98.30
44271;DHT22;29963;44.594;11.368;2023-07-09T10:45:15;29.80;98.10
44271;DHT22;29963;44.594;11.368;2023-07-09T10:47:48;29.90;98.50
44271;DHT22;29963;44.594;11.368;2023-07-09T10:52:52;29.90;98.80
44271;DHT22;29963;44.594;11.368;2023-07-09T10:59:06;30.00;98.60
44271;DHT22;29963;44.594;11.368;2023-07-09T11:01:41;30.00;98.10
44271;DHT22;29963;44.594;11.368;2023-07-09T11:06:52;30.10;98.20
44271;DHT22;29963;44.594;11.368;2023-07-09T11:09:34;30.10;98.20
44271;DHT22;29963;44.594;11.368;2023-07-09T11:12:14;30.20;97.70
44271;DHT22;29963;44.594;11.368;2023-07-09T11:14:50;30.20;98.00
44271;DHT22;29963;44.594;11.368;2023-07-09T11:17:19;30.20;98.30
44271;DHT22;29963;44.594;11.368;2023-07-09T11:19:47;30.30;98.10
44271;DHT22;29963;44.594;11.368;2023-07-09T11:22:37;30.30;97.90
44271;DHT22;29963;44.594;11.368;2023-07-09T11:25:10;30.30;97.80
44271;DHT22;29963;44.594;11.368;2023-07-09T11:27:50;30.40;98.20
44271;DHT22;29963;44.594;11.368;2023-07-09T11:30:22;30.50;97.90
44271;DHT22;29963;44.594;11.368;2023-07-09T11:32:53;30.60;96.70
44271;DHT22;29963;44.594;11.368;2023-07-09T11:35:26;30.60;96.80
44271;DHT22;29963;44.594;11.368;2023-07-09T11:37:52;30.70;97.10
44271;DHT22;29963;44.594;11.368;2023-07-09T11:40:22;30.70;97.20
44271;DHT22;29963;44.594;11.368;2023-07-09T11:45:28;30.90;96.40
44271;DHT22;29963;44.594;11.368;2023-07-09T11:50:50;31.10;95.90
44271;DHT22;29963;44.594;11.368;2023-07-09T11:55:46;31.10;96.40
44271;DHT22;29963;44.594;11.368;2023-07-09T11:58:13;31.10;96.80
44271;DHT22;29963;44.594;11.368;2023-07-09T12:00:51;31.10;96.60
44271;DHT22;29963;44.594;11.368;2023-07-09T12:03:34;31.10;96.30
44271;DHT22;29963;44.594;11.368;2023-07-09T12:06:15;31.10;96.00
44271;DHT22;29963;44.594;11.368;2023-07-09T12:08:43;31.10;95.20
44271;DHT22;29963;44.594;11.368;2023-07-09T12:11:31;31.10;95.10
44271;DHT22;29963;44.594;11.368;2023-07-09T12:14:12;31.10;94.90
44271;DHT22;29963;44.594;11.368;2023-07-09T12:16:41;31.10;95.50
44271;DHT22;29963;44.594;11.368;2023-07-09T12:19:07;31.00;94.80
44271;DHT22;29963;44.594;11.368;2023-07-09T12:21:37;31.10;95.30
44271;DHT22;29963;44.594;11.368;2023-07-09T12:24:13;31.00;95.50
44271;DHT22;29963;44.594;11.368;2023-07-09T12:26:40;30.80;94.50
44271;DHT22;29963;44.594;11.368;2023-07-09T12:29:09;31.00;94.50
44271;DHT22;29963;44.594;11.368;2023-07-09T12:31:35;31.00;94.50
44271;DHT22;29963;44.594;11.368;2023-07-09T12:34:01;31.10;94.60
44271;DHT22;29963;44.594;11.368;2023-07-09T12:36:27;31.10;95.50
44271;DHT22;29963;44.594;11.368;2023-07-09T12:39:04;31.20;95.40
44271;DHT22;29963;44.594;11.368;2023-07-09T12:41:38;31.30;95.70
44271;DHT22;29963;44.594;11.368;2023-07-09T12:44:05;31.40;95.40
44271;DHT22;29963;44.594;11.368;2023-07-09T12:46:31;31.50;95.50
44271;DHT22;29963;44.594;11.368;2023-07-09T12:48:57;31.60;95.50
44271;DHT22;29963;44.594;11.368;2023-07-09T12:51:25;31.80;94.50
44271;DHT22;29963;44.594;11.368;2023-07-09T12:54:16;31.80;94.80
44271;DHT22;29963;44.594;11.368;2023-07-09T12:56:42;31.90;94.70
44271;DHT22;29963;44.594;11.368;2023-07-09T12:59:38;32.10;94.00
44271;DHT22;29963;44.594;11.368;2023-07-09T13:02:21;32.20;94.30
44271;DHT22;29963;44.594;11.368;2023-07-09T13:04:48;32.20;93.90
44271;DHT22;29963;44.594;11.368;2023-07-09T13:09:53;32.50;93.20
44271;DHT22;29963;44.594;11.368;2023-07-09T13:12:20;32.50;93.20
44271;DHT22;29963;44.594;11.368;2023-07-09T13:14:55;32.70;93.00
44271;DHT22;29963;44.594;11.368;2023-07-09T13:17:20;32.70;93.30
44271;DHT22;29963;44.594;11.368;2023-07-09T13:19:46;32.80;93.30
44271;DHT22;29963;44.594;11.368;2023-07-09T13:22:14;32.90;92.80
44271;DHT22;29963;44.594;11.368;2023-07-09T13:24:40;32.90;93.30
44271;DHT22;29963;44.594;11.368;2023-07-09T13:27:11;32.90;93.00
44271;DHT22;29963;44.594;11.368;2023-07-09T13:29:37;33.00;92.60
44271;DHT22;29963;44.594;11.368;2023-07-09T13:32:12;33.00;92.50
44271;DHT22;29963;44.594;11.368;2023-07-09T13:34:38;33.10;91.70
44271;DHT22;29963;44.594;11.368;2023-07-09T13:37:08;33.20;92.60
44271;DHT22;29963;44.594;11.368;2023-07-09T13:39:34;33.20;91.70
44271;DHT22;29963;44.594;11.368;2023-07-09T13:42:00;33.10;91.00
44271;DHT22;29963;44.594;11.368;2023-07-09T13:44:28;33.10;91.70
44271;DHT22;29963;44.594;11.368;2023-07-09T13:46:56;33.10;92.30
44271;DHT22;29963;44.594;11.368;2023-07-09T13:49:23;33.20;91.80
44271;DHT22;29963;44.594;11.368;2023-07-09T13:51:52;33.30;92.00
44271;DHT22;29963;44.594;11.368;2023-07-09T13:54:30;33.40;91.20
44271;DHT22;29963;44.594;11.368;2023-07-09T13:57:04;33.50;91.10
44271;DHT22;29963;44.594;11.368;2023-07-09T13:59:31;33.50;90.60
44271;DHT22;29963;44.594;11.368;2023-07-09T14:01:58;33.50;90.70
44271;DHT22;29963;44.594;11.368;2023-07-09T14:04:26;33.60;91.00
44271;DHT22;29963;44.594;11.368;2023-07-09T14:06:52;33.60;91.00
44271;DHT22;29963;44.594;11.368;2023-07-09T14:09:18;33.70;90.70
44271;DHT22;29963;44.594;11.368;2023-07-09T14:11:53;33.80;90.90
44271;DHT22;29963;44.594;11.368;2023-07-09T14:14:25;33.90;90.50
44271;DHT22;29963;44.594;11.368;2023-07-09T14:16:52;34.00;90.30
44271;DHT22;29963;44.594;11.368;2023-07-09T14:19:23;34.10;90.90
44271;DHT22;29963;44.594;11.368;2023-07-09T14:21:49;34.20;90.50
44271;DHT22;29963;44.594;11.368;2023-07-09T14:26:47;34.30;88.50
44271;DHT22;29963;44.594;11.368;2023-07-09T14:29:13;34.40;88.00
44271;DHT22;29963;44.594;11.368;2023-07-09T14:31:39;34.50;87.00
44271;DHT22;29963;44.594;11.368;2023-07-09T14:34:28;34.50;86.10
44271;DHT22;29963;44.594;11.368;2023-07-09T14:36:56;34.60;84.10
44271;DHT22;29963;44.594;11.368;2023-07-09T14:39:23;34.60;84.30
44271;DHT22;29963;44.594;11.368;2023-07-09T14:41:49;34.70;86.70
44271;DHT22;29963;44.594;11.368;2023-07-09T14:44:29;34.80;87.40
44271;DHT22;29963;44.594;11.368;2023-07-09T14:46:59;34.90;86.60
44271;DHT22;29963;44.594;11.368;2023-07-09T14:49:26;34.80;84.20
44271;DHT22;29963;44.594;11.368;2023-07-09T14:51:52;34.90;86.70
44271;DHT22;29963;44.594;11.368;2023-07-09T14:54:23;34.90;85.90
44271;DHT22;29963;44.594;11.368;2023-07-09T14:56:50;34.90;84.10
44271;DHT22;29963;44.594;11.368;2023-07-09T14:59:16;34.90;83.20
44271;DHT22;29963;44.594;11.368;2023-07-09T15:01:43;35.00;83.10
44271;DHT22;29963;44.594;11.368;2023-07-09T15:04:32;35.10;82.30
44271;DHT22;29963;44.594;11.368;2023-07-09T15:06:59;35.20;82.10
44271;DHT22;29963;44.594;11.368;2023-07-09T15:09:27;35.20;82.70
44271;DHT22;29963;44.594;11.368;2023-07-09T15:11:55;35.30;83.20
44271;DHT22;29963;44.594;11.368;2023-07-09T15:16:48;35.40;82.30
44271;DHT22;29963;44.594;11.368;2023-07-09T15:19:19;35.50;81.70
44271;DHT22;29963;44.594;11.368;2023-07-09T15:21:46;35.50;82.50
44271;DHT22;29963;44.594;11.368;2023-07-09T15:24:22;35.50;82.70
44271;DHT22;29963;44.594;11.368;2023-07-09T15:26:52;35.60;83.90
44271;DHT22;29963;44.594;11.368;2023-07-09T15:29:19;35.70;84.10
44271;DHT22;29963;44.594;11.368;2023-07-09T15:31:44;35.70;83.60
44271;DHT22;29963;44.594;11.368;2023-07-09T15:34:10;35.70;83.40
44271;DHT22;29963;44.594;11.368;2023-07-09T15:36:36;35.80;82.60
44271;DHT22;29963;44.594;11.368;2023-07-09T15:39:02;35.80;82.80
44271;DHT22;29963;44.594;11.368;2023-07-09T15:41:28;35.80;82.60
44271;DHT22;29963;44.594;11.368;2023-07-09T15:43:54;35.90;82.50
44271;DHT22;29963;44.594;11.368;2023-07-09T15:46:21;35.90;82.10
44271;DHT22;29963;44.594;11.368;2023-07-09T15:48:48;35.90;81.60
44271;DHT22;29963;44.594;11.368;2023-07-09T15:51:15;36.00;81.60
44271;DHT22;29963;44.594;11.368;2023-07-09T15:53:41;36.00;81.70
44271;DHT22;29963;44.594;11.368;2023-07-09T15:56:27;36.00;81.60
44271;DHT22;29963;44.594;11.368;2023-07-09T15:58:55;36.00;81.10
44271;DHT22;29963;44.594;11.368;2023-07-09T16:01:22;36.10;81.00
44271;DHT22;29963;44.594;11.368;2023-07-09T16:03:49;36.30;80.10
44271;DHT22;29963;44.594;11.368;2023-07-09T16:06:17;36.20;80.40
44271;DHT22;29963;44.594;11.368;2023-07-09T16:08:43;36.30;79.70
44271;DHT22;29963;44.594;11.368;2023-07-09T16:11:21;36.30;81.30
44271;DHT22;29963;44.594;11.368;2023-07-09T16:13:48;36.30;80.90
44271;DHT22;29963;44.594;11.368;2023-07-09T16:16:16;36.40;79.40
44271;DHT22;29963;44.594;11.368;2023-07-09T16:18:42;36.40;78.10
44271;DHT22;29963;44.594;11.368;2023-07-09T16:23:47;36.60;78.20
44271;DHT22;29963;44.594;11.368;2023-07-09T16:26:12;36.60;78.80
44271;DHT22;29963;44.594;11.368;2023-07-09T16:28:38;36.60;78.40